createdAt,value
2023-05-01T00:01:38.043Z,99932.97
2023-05-01T00:04:06.259Z,99928.12
2023-05-01T00:06:34.431Z,99925.66
2023-05-01T00:09:01.880Z,99930.03
2023-05-01T00:11:29.610Z,99928.12
2023-05-01T00:13:57.080Z,99932.53
2023-05-01T00:16:24.540Z,99926.47
2023-05-01T00:18:52.628Z,99923.75
2023-05-01T00:21:21.525Z,99924.59
2023-05-01T00:23:49.021Z,99928.38
2023-05-01T00:26:16.811Z,99926.69
2023-05-01T00:28:45.904Z,99927.53
2023-05-01T00:31:13.431Z,99924.59
2023-05-01T00:33:41.152Z,99920.41
2023-05-01T00:36:09.230Z,99917.69
2023-05-01T00:38:36.650Z,99920.41
2023-05-01T00:41:04.442Z,99924.19
2023-05-01T00:43:32.400Z,99920.41
2023-05-01T00:45:59.844Z,99917.91
2023-05-01T00:48:27.691Z,99924.19
2023-05-01T00:50:56.014Z,99917.09
2023-05-01T00:53:24.284Z,99919.81
2023-05-01T00:55:52.354Z,99922.28
2023-05-01T00:58:19.911Z,99920.62
2023-05-01T01:00:47.463Z,99922.53
2023-05-01T01:03:15.278Z,99925.25
2023-05-01T01:05:45.081Z,99927.97
2023-05-01T01:08:21.932Z,99927.97
2023-05-01T01:10:58.848Z,99929.62
2023-05-01T01:13:35.951Z,99925.47
2023-05-01T01:16:19.096Z,99930.94
2023-05-01T01:19:08.310Z,99923.78
2023-05-01T01:21:41.369Z,99920.88
2023-05-01T01:24:30.889Z,99919.41
2023-05-01T01:27:20.182Z,99921.31
2023-05-01T01:29:59.634Z,99916.47
2023-05-01T01:32:55.432Z,99915.63
2023-05-01T01:35:26.373Z,99909.16
2023-05-01T01:38:16.717Z,99907.91
2023-05-01T01:41:06.485Z,99912.31
2023-05-01T01:43:38.456Z,99908.75
2023-05-01T01:46:06.992Z,99912.25
2023-05-01T01:48:36.355Z,99906.25
2023-05-01T01:51:09.331Z,99903.75
2023-05-01T01:53:37.700Z,99909.19
2023-05-01T01:56:06.327Z,99909.19
2023-05-01T01:58:35.101Z,99914.63
2023-05-01T02:01:02.808Z,99916.28
2023-05-01T02:03:31.054Z,99919.00
2023-05-01T02:05:58.718Z,99910.25
2023-05-01T02:08:26.176Z,99914.63
2023-05-01T02:10:58.843Z,99908.34
2023-05-01T02:13:29.293Z,99908.13
2023-05-01T02:16:00.636Z,99903.75
2023-05-01T02:18:30.597Z,99914.63
2023-05-01T02:20:59.031Z,99909.19
2023-05-01T02:23:27.785Z,99907.28
2023-05-01T02:25:55.600Z,99909.41
2023-05-01T02:28:23.580Z,99906.69
2023-05-01T02:30:51.006Z,99905.03
2023-05-01T02:33:18.808Z,99908.34
2023-05-01T02:35:47.476Z,99907.53
2023-05-01T02:38:16.809Z,99906.47
2023-05-01T02:40:47.008Z,99909.19
2023-05-01T02:43:16.369Z,99911.91
2023-05-01T02:45:45.081Z,99911.06
2023-05-01T02:48:14.034Z,99911.31
2023-05-01T02:50:44.328Z,99914.03
2023-05-01T02:53:12.302Z,99911.06
2023-05-01T02:55:40.471Z,99913.19
2023-05-01T02:58:08.203Z,99912.13
2023-05-01T03:00:35.903Z,99921.38
2023-05-01T03:03:03.566Z,99917.81
2023-05-01T03:05:31.042Z,99921.38
2023-05-01T03:07:58.737Z,99928.69
2023-05-01T03:10:26.194Z,99917.81
2023-05-01T03:12:53.635Z,99929.72
2023-05-01T03:15:21.422Z,99927.00
2023-05-01T03:17:48.864Z,99929.72
2023-05-01T03:20:16.343Z,99921.56
2023-05-01T03:22:45.225Z,99927.84
2023-05-01T03:25:13.192Z,99925.13
2023-05-01T03:27:40.945Z,99932.44
2023-05-01T03:30:10.187Z,99927.84
2023-05-01T03:32:38.209Z,99930.78
2023-05-01T03:35:06.458Z,99935.16
2023-05-01T03:37:34.247Z,99927.84
2023-05-01T03:40:01.856Z,99930.38
2023-05-01T03:42:31.617Z,99929.53
2023-05-01T03:44:59.891Z,99934.97
2023-05-01T03:47:29.009Z,99929.53
2023-05-01T03:49:56.916Z,99937.47
2023-05-01T03:52:24.966Z,99929.53
2023-05-01T03:54:52.549Z,99934.16
2023-05-01T03:57:23.422Z,99936.88
2023-05-01T03:59:51.318Z,99936.88
2023-05-01T04:02:19.738Z,99929.72
2023-05-01T04:04:47.480Z,99928.91
2023-05-01T04:07:15.258Z,99928.91
2023-05-01T04:09:43.961Z,99933.50
2023-05-01T04:12:12.080Z,99931.63
2023-05-01T04:14:39.610Z,99931.63
2023-05-01T04:17:07.129Z,99936.25
2023-05-01T04:19:35.282Z,99933.50
2023-05-01T04:22:02.997Z,99927.25
2023-05-01T04:24:31.266Z,99932.69
2023-05-01T04:26:58.995Z,99929.12
2023-05-01T04:29:26.417Z,99934.56
2023-05-01T04:31:53.953Z,99934.81
2023-05-01T04:34:21.653Z,99937.53
2023-05-01T04:36:49.161Z,99941.06
2023-05-01T04:39:17.149Z,99939.37
2023-05-01T04:41:44.877Z,99946.53
2023-05-01T04:44:12.301Z,99946.53
2023-05-01T04:46:39.830Z,99941.91
2023-05-01T04:49:07.970Z,99942.09
2023-05-01T04:51:36.196Z,99950.06
2023-05-01T04:54:04.795Z,99951.72
2023-05-01T04:56:34.791Z,99947.34
2023-05-01T04:59:02.233Z,99950.91
2023-05-01T05:01:30.646Z,99951.34
2023-05-01T05:03:58.630Z,99949.44
2023-05-01T05:06:26.406Z,99954.87
2023-05-01T05:08:54.187Z,99957.59
2023-05-01T05:11:21.895Z,99952.16
2023-05-01T05:13:49.366Z,99952.41
2023-05-01T05:16:17.482Z,99950.50
2023-05-01T05:18:45.265Z,99957.84
2023-05-01T05:21:12.718Z,99955.13
2023-05-01T05:23:41.343Z,99956.78
2023-05-01T05:26:08.990Z,99957.41
2023-05-01T05:28:36.441Z,99960.12
2023-05-01T05:31:04.700Z,99960.12
2023-05-01T05:33:32.655Z,99956.56
2023-05-01T05:36:00.603Z,99960.12
2023-05-01T05:38:28.708Z,99959.06
2023-05-01T05:40:56.602Z,99968.06
2023-05-01T05:43:26.646Z,99967.22
2023-05-01T05:45:57.614Z,99964.50
2023-05-01T05:48:25.494Z,99972.69
2023-05-01T05:50:52.951Z,99977.06
2023-05-01T05:53:21.237Z,99966.16
2023-05-01T05:55:49.592Z,99968.88
2023-05-01T05:58:20.143Z,99970.78
2023-05-01T06:00:48.583Z,99971.63
2023-05-01T06:03:16.711Z,99976.22
2023-05-01T06:05:44.332Z,99977.87
2023-05-01T06:08:13.964Z,99982.50
2023-05-01T06:10:43.153Z,99982.50
2023-05-01T06:13:14.193Z,99984.16
2023-05-01T06:15:43.775Z,99985.22
2023-05-01T06:18:11.956Z,99978.94
2023-05-01T06:20:39.818Z,99983.34
2023-05-01T06:23:08.571Z,99983.34
2023-05-01T06:25:38.275Z,99986.06
2023-05-01T06:28:05.858Z,99994.03
2023-05-01T06:30:34.007Z,99992.31
2023-05-01T06:33:02.261Z,99993.16
2023-05-01T06:35:29.883Z,99995.03
2023-05-01T06:37:57.661Z,99992.31
2023-05-01T06:40:25.117Z,99992.97
2023-05-01T06:42:52.929Z,99994.84
2023-05-01T06:45:23.719Z,99997.56
2023-05-01T06:47:51.134Z,99999.63
2023-05-01T06:50:18.626Z,99998.97
2023-05-01T06:52:46.495Z,99988.91
2023-05-01T06:55:14.004Z,99997.28
2023-05-01T06:57:42.854Z,99996.25
2023-05-01T07:00:11.260Z,99999.81
2023-05-01T07:02:38.830Z,99998.75
2023-05-01T07:05:06.727Z,99987.63
2023-05-01T07:07:34.991Z,99995.78
2023-05-01T07:10:02.440Z,99991.19
2023-05-01T07:12:29.851Z,99989.53
2023-05-01T07:14:57.618Z,99997.47
2023-05-01T07:17:26.458Z,99993.91
2023-05-01T07:19:53.915Z,99998.31
2023-05-01T07:22:21.679Z,99998.31
2023-05-01T07:24:49.150Z,99988.47
2023-05-01T07:27:17.187Z,99994.13
2023-05-01T07:29:44.902Z,99997.28
2023-05-01T07:32:12.478Z,99997.50
2023-05-01T07:34:40.044Z,99988.75
2023-05-01T07:37:07.906Z,99995.44
2023-05-01T07:39:35.308Z,99996.75
2023-05-01T07:42:02.702Z,100000.50
2023-05-01T07:44:30.401Z,100008.88
2023-05-01T07:47:03.660Z,100001.78
2023-05-01T07:49:37.132Z,100007.22
2023-05-01T07:52:05.630Z,100008.06
2023-05-01T07:54:33.776Z,99996.34
2023-05-01T07:57:02.132Z,100008.28
2023-05-01T07:59:29.574Z,100000.94
2023-05-01T08:01:57.444Z,100003.66
2023-05-01T08:04:26.912Z,100009.31
2023-05-01T08:06:54.445Z,100007.41
2023-05-01T08:09:22.029Z,100001.97
2023-05-01T08:11:50.240Z,100007.41
2023-05-01T08:14:18.405Z,100006.59
2023-05-01T08:16:45.961Z,100002.22
2023-05-01T08:19:13.689Z,100003.28
2023-05-01T08:21:41.098Z,100004.09
2023-05-01T08:24:09.344Z,100010.59
2023-05-01T08:26:37.389Z,100010.59
2023-05-01T08:29:04.923Z,100013.53
2023-05-01T08:31:32.354Z,100009.97
2023-05-01T08:34:00.158Z,100011.84
2023-05-01T08:36:28.156Z,100007.47
2023-05-01T08:38:55.567Z,100004.97
2023-05-01T08:41:26.213Z,100006.00
2023-05-01T08:43:53.682Z,99996.19
2023-05-01T08:46:36.562Z,99996.19
2023-05-01T08:49:05.481Z,99998.91
2023-05-01T08:51:33.394Z,100002.47
2023-05-01T08:54:02.137Z,100002.69
2023-05-01T08:56:29.971Z,99999.13
2023-05-01T08:58:58.484Z,100001.84
2023-05-01T09:01:26.455Z,100008.97
2023-05-01T09:03:54.206Z,100003.75
2023-05-01T09:06:21.788Z,100011.06
2023-05-01T09:08:49.245Z,100002.09
2023-05-01T09:11:17.140Z,100004.81
2023-05-01T09:13:44.692Z,100001.03
2023-05-01T09:16:12.171Z,99999.38
2023-05-01T09:18:41.198Z,99994.75
2023-05-01T09:21:08.728Z,99987.81
2023-05-01T09:23:37.618Z,99988.66
2023-05-01T09:26:06.033Z,99999.38
2023-05-01T09:28:44.952Z,99996.66
2023-05-01T09:31:32.806Z,99996.66
2023-05-01T09:34:03.979Z,99999.97
2023-05-01T09:36:33.106Z,99993.06
2023-05-01T09:39:00.912Z,99985.09
2023-05-01T09:41:28.705Z,99994.94
2023-05-01T09:43:56.930Z,99987.81
2023-05-01T09:46:25.136Z,99980.47
2023-05-01T09:48:58.494Z,99985.09
2023-05-01T09:51:33.090Z,99983.03
2023-05-01T09:54:01.922Z,99985.94
2023-05-01T09:56:31.743Z,99985.94
2023-05-01T09:59:14.016Z,99978.81
2023-05-01T10:01:43.342Z,99973.19
2023-05-01T10:04:11.649Z,99972.31
2023-05-01T10:06:39.493Z,99972.31
2023-05-01T10:09:10.872Z,99966.88
2023-05-01T10:11:57.873Z,99964.16
2023-05-01T10:14:27.156Z,99964.00
2023-05-01T10:16:56.769Z,99954.13
2023-05-01T10:19:24.292Z,99948.69
2023-05-01T10:21:52.562Z,99956.84
2023-05-01T10:24:20.475Z,99947.84
2023-05-01T10:26:51.085Z,99942.63
2023-05-01T10:29:20.053Z,99943.69
2023-05-01T10:31:48.449Z,99940.13
2023-05-01T10:34:17.642Z,99939.91
2023-05-01T10:36:58.955Z,99939.91
2023-05-01T10:39:31.458Z,99942.63
2023-05-01T10:42:04.453Z,99939.06
2023-05-01T10:44:32.533Z,99935.53
2023-05-01T10:46:59.910Z,99932.81
2023-05-01T10:50:04.391Z,99937.19
2023-05-01T10:52:54.835Z,99929.66
2023-05-01T10:55:38.686Z,99936.94
2023-05-01T10:58:06.380Z,99930.69
2023-05-01T11:00:34.427Z,99932.56
2023-05-01T11:03:23.763Z,99932.81
2023-05-01T11:06:00.923Z,99917.91
2023-05-01T11:08:32.476Z,99930.69
2023-05-01T11:11:21.948Z,99934.47
2023-05-01T11:14:01.981Z,99923.19
2023-05-01T11:16:42.165Z,99926.72
2023-05-01T11:19:12.305Z,99913.91
2023-05-01T11:21:41.938Z,99913.97
2023-05-01T11:24:09.641Z,99908.91
2023-05-01T11:26:40.766Z,99910.59
2023-05-01T11:29:10.530Z,99910.59
2023-05-01T11:31:38.584Z,99900.75
2023-05-01T11:34:07.122Z,99902.44
2023-05-01T11:36:51.179Z,99892.59
2023-05-01T11:39:18.914Z,99898.47
2023-05-01T11:41:47.084Z,99888.84
2023-05-01T11:44:17.799Z,99892.59
2023-05-01T11:46:45.267Z,99904.13
2023-05-01T11:49:13.007Z,99899.72
2023-05-01T11:51:40.687Z,99894.28
2023-05-01T11:54:15.526Z,99891.56
2023-05-01T11:56:43.576Z,99894.28
2023-05-01T11:59:18.943Z,99887.81
2023-05-01T12:01:46.784Z,99876.25
2023-05-01T12:04:29.722Z,99877.09
2023-05-01T12:06:59.256Z,99874.22
2023-05-01T12:09:27.087Z,99870.63
2023-05-01T12:11:54.494Z,99873.34
2023-05-01T12:14:22.115Z,99869.78
2023-05-01T12:16:49.984Z,99869.78
2023-05-01T12:19:36.249Z,99862.47
2023-05-01T12:22:09.926Z,99865.38
2023-05-01T12:24:37.707Z,99862.66
2023-05-01T12:27:07.229Z,99872.50
2023-05-01T12:29:41.628Z,99866.22
2023-05-01T12:32:09.358Z,99861.19
2023-05-01T12:34:36.977Z,99853.28
2023-05-01T12:37:05.424Z,99848.84
2023-05-01T12:39:40.499Z,99856.81
2023-05-01T12:42:15.016Z,99850.31
2023-05-01T12:44:43.245Z,99853.03
2023-05-01T12:47:10.698Z,99835.06
2023-05-01T12:49:38.078Z,99833.16
2023-05-01T12:52:07.412Z,99829.59
2023-05-01T12:54:39.059Z,99826.06
2023-05-01T12:57:11.798Z,99833.16
2023-05-01T12:59:39.918Z,99828.56
2023-05-01T13:02:10.896Z,99822.50
2023-05-01T13:04:38.989Z,99817.06
2023-05-01T13:07:13.086Z,99813.50
2023-05-01T13:09:40.993Z,99809.72
2023-05-01T13:12:09.846Z,99807.84
2023-05-01T13:14:40.961Z,99810.56
2023-05-01T13:17:09.663Z,99802.59
2023-05-01T13:19:37.943Z,99807.00
2023-05-01T13:22:06.202Z,99802.59
2023-05-01T13:24:37.004Z,99807.00
2023-05-01T13:27:05.752Z,99796.34
2023-05-01T13:29:33.221Z,99796.13
2023-05-01T13:32:01.169Z,99791.53
2023-05-01T13:34:33.084Z,99787.97
2023-05-01T13:37:01.413Z,99789.88
2023-05-01T13:39:28.882Z,99787.97
2023-05-01T13:41:56.340Z,99781.69
2023-05-01T13:44:24.123Z,99782.53
2023-05-01T13:46:51.660Z,99780.63
2023-05-01T13:49:21.764Z,99778.97
2023-05-01T13:51:49.533Z,99775.78
2023-05-01T13:54:16.983Z,99773.47
2023-05-01T13:56:44.413Z,99762.56
2023-05-01T13:59:12.182Z,99766.97
2023-05-01T14:01:42.693Z,99768.19
2023-05-01T14:04:11.578Z,99756.22
2023-05-01T14:06:42.152Z,99765.59
2023-05-01T14:09:09.909Z,99761.62
2023-05-01T14:11:42.801Z,99758.44
2023-05-01T14:14:17.152Z,99759.06
2023-05-01T14:16:51.065Z,99754.19
2023-05-01T14:19:18.875Z,99756.47
2023-05-01T14:21:46.979Z,99748.06
2023-05-01T14:24:16.076Z,99748.91
2023-05-01T14:26:45.104Z,99738.62
2023-05-01T14:29:22.720Z,99749.06
2023-05-01T14:31:51.192Z,99741.97
2023-05-01T14:34:19.650Z,99748.63
2023-05-01T14:36:47.353Z,99732.28
2023-05-01T14:39:15.808Z,99740.22
2023-05-01T14:41:43.303Z,99734.56
2023-05-01T14:44:12.684Z,99728.88
2023-05-01T14:46:46.367Z,99731.34
2023-05-01T14:49:21.632Z,99726.78
2023-05-01T14:51:49.366Z,99726.53
2023-05-01T14:54:17.043Z,99723.56
2023-05-01T14:56:44.846Z,99716.22
2023-05-01T14:59:12.713Z,99724.41
2023-05-01T15:01:40.446Z,99712.25
2023-05-01T15:04:08.473Z,99718.28
2023-05-01T15:06:36.340Z,99717.25
2023-05-01T15:09:05.187Z,99718.28
2023-05-01T15:11:32.682Z,99713.91
2023-05-01T15:14:00.374Z,99713.66
2023-05-01T15:16:27.905Z,99714.50
2023-05-01T15:19:04.368Z,99715.34
2023-05-01T15:21:35.843Z,99718.06
2023-05-01T15:24:04.512Z,99713.22
2023-05-01T15:26:32.220Z,99705.28
2023-05-01T15:28:59.655Z,99705.28
2023-05-01T15:31:27.098Z,99703.63
2023-05-01T15:33:54.863Z,99704.44
2023-05-01T15:36:22.377Z,99709.91
2023-05-01T15:38:49.760Z,99702.56
2023-05-01T15:41:18.998Z,99697.31
2023-05-01T15:43:46.749Z,99697.31
2023-05-01T15:46:15.343Z,99700.03
2023-05-01T15:48:43.190Z,99700.91
2023-05-01T15:51:10.672Z,99706.56
2023-05-01T15:53:38.065Z,99706.56
2023-05-01T15:56:06.003Z,99702.19
2023-05-01T15:58:33.406Z,99698.63
2023-05-01T16:01:00.818Z,99700.53
2023-05-01T16:03:29.248Z,99698.00
2023-05-01T16:05:57.694Z,99706.16
2023-05-01T16:08:25.144Z,99694.44
2023-05-01T16:10:53.869Z,99703.44
2023-05-01T16:13:21.363Z,99699.69
2023-05-01T16:15:49.140Z,99696.97
2023-05-01T16:18:20.891Z,99694.44
2023-05-01T16:20:48.336Z,99693.41
2023-05-01T16:23:15.853Z,99695.28
2023-05-01T16:25:43.665Z,99689.00
2023-05-01T16:28:11.990Z,99692.56
2023-05-01T16:30:42.533Z,99689.84
2023-05-01T16:33:20.578Z,99683.56
2023-05-01T16:35:50.762Z,99681.47
2023-05-01T16:38:18.693Z,99683.34
2023-05-01T16:40:47.150Z,99679.81
2023-05-01T16:43:14.596Z,99681.47
2023-05-01T16:45:42.313Z,99677.91
2023-05-01T16:48:09.914Z,99682.53
2023-05-01T16:50:57.633Z,99684.19
2023-05-01T16:53:25.528Z,99687.97
2023-05-01T16:55:53.241Z,99687.72
2023-05-01T16:58:20.671Z,99689.63
2023-05-01T17:00:48.611Z,99689.63
2023-05-01T17:03:16.223Z,99687.72
2023-05-01T17:05:43.709Z,99686.91
2023-05-01T17:08:11.733Z,99692.34
2023-05-01T17:10:39.140Z,99684.19
2023-05-01T17:13:07.766Z,99689.63
2023-05-01T17:15:35.548Z,99686.06
2023-05-01T17:18:03.486Z,99676.00
2023-05-01T17:20:31.044Z,99682.28
2023-05-01T17:22:58.873Z,99689.63
2023-05-01T17:25:26.322Z,99682.28
2023-05-01T17:27:54.761Z,99683.94
2023-05-01T17:30:22.864Z,99677.06
2023-05-01T17:32:50.534Z,99684.78
2023-05-01T17:35:18.238Z,99680.97
2023-05-01T17:37:45.988Z,99676.41
2023-05-01T17:40:13.757Z,99679.94
2023-05-01T17:42:41.929Z,99680.78
2023-05-01T17:45:10.700Z,99676.16
2023-05-01T17:47:42.763Z,99679.69
2023-05-01T17:50:12.022Z,99680.28
2023-05-01T17:52:40.775Z,99673.81
2023-05-01T17:55:10.040Z,99675.47
2023-05-01T17:57:40.987Z,99677.94
2023-05-01T18:00:09.699Z,99685.06
2023-05-01T18:02:39.888Z,99680.44
2023-05-01T18:05:10.199Z,99687.56
2023-05-01T18:07:37.624Z,99688.37
2023-05-01T18:10:05.465Z,99679.97
2023-05-01T18:12:33.599Z,99677.25
2023-05-01T18:15:01.574Z,99683.53
2023-05-01T18:17:29.391Z,99682.47
2023-05-01T18:19:57.752Z,99677.00
2023-05-01T18:22:25.650Z,99684.16
2023-05-01T18:24:53.318Z,99682.84
2023-05-01T18:27:22.002Z,99676.56
2023-05-01T18:29:49.633Z,99688.94
2023-05-01T18:32:17.876Z,99687.03
2023-05-01T18:34:46.307Z,99685.97
2023-05-01T18:37:14.973Z,99687.63
2023-05-01T18:39:43.496Z,99690.34
2023-05-01T18:42:12.353Z,99687.41
2023-05-01T18:44:40.056Z,99698.31
2023-05-01T18:47:07.657Z,99693.91
2023-05-01T18:49:36.106Z,99703.97
2023-05-01T18:52:04.266Z,99700.41
2023-05-01T18:54:32.339Z,99702.06
2023-05-01T18:57:00.836Z,99704.81
2023-05-01T18:59:31.325Z,99702.91
2023-05-01T19:02:01.408Z,99706.69
2023-05-01T19:04:31.531Z,99708.88
2023-05-01T19:07:00.327Z,99717.72
2023-05-01T19:09:28.667Z,99716.31
2023-05-01T19:11:57.062Z,99712.16
2023-05-01T19:14:25.446Z,99716.53
2023-05-01T19:16:53.839Z,99719.25
2023-05-01T19:19:22.745Z,99715.69
2023-05-01T19:21:51.668Z,99713.81
2023-05-01T19:24:19.485Z,99718.41
2023-05-01T19:26:47.603Z,99714.88
2023-05-01T19:29:18.085Z,99705.63
2023-05-01T19:31:45.936Z,99720.94
2023-05-01T19:34:15.545Z,99717.66
2023-05-01T19:36:43.473Z,99713.09
2023-05-01T19:39:15.070Z,99708.97
2023-05-01T19:41:44.895Z,99713.59
2023-05-01T19:44:14.001Z,99713.59
2023-05-01T19:46:41.759Z,99706.75
2023-05-01T19:49:13.333Z,99715.25
2023-05-01T19:51:41.613Z,99715.69
2023-05-01T19:54:10.009Z,99708.34
2023-05-01T19:56:39.066Z,99712.75
2023-05-01T19:59:08.829Z,99706.84
2023-05-01T20:01:37.349Z,99706.84
2023-05-01T20:04:05.921Z,99717.53
2023-05-01T20:06:33.519Z,99710.19
2023-05-01T20:09:01.413Z,99714.81
2023-05-01T20:11:29.724Z,99708.53
2023-05-01T20:14:00.623Z,99715.84
2023-05-01T20:16:28.741Z,99715.00
2023-05-01T20:18:58.678Z,99713.34
2023-05-01T20:21:27.796Z,99717.72
2023-05-01T20:23:57.630Z,99717.97
2023-05-01T20:26:25.774Z,99719.87
2023-05-01T20:28:53.680Z,99720.94
2023-05-01T20:31:21.602Z,99715.69
2023-05-01T20:33:49.172Z,99720.31
2023-05-01T20:36:18.284Z,99715.09
2023-05-01T20:38:47.577Z,99717.00
2023-05-01T20:41:15.403Z,99718.06
2023-05-01T20:43:43.378Z,99714.50
2023-05-01T20:46:11.498Z,99713.63
2023-05-01T20:48:39.466Z,99719.94
2023-05-01T20:51:06.840Z,99722.03
2023-05-01T20:53:34.588Z,99721.22
2023-05-01T20:56:02.383Z,99728.31
2023-05-01T20:58:29.790Z,99725.84
2023-05-01T21:00:58.350Z,99726.03
2023-05-01T21:03:25.799Z,99733.38
2023-05-01T21:05:57.794Z,99728.75
2023-05-01T21:08:27.039Z,99732.56
2023-05-01T21:10:54.605Z,99729.00
2023-05-01T21:13:23.550Z,99735.28
2023-05-01T21:15:52.104Z,99735.28
2023-05-01T21:18:22.398Z,99729.84
2023-05-01T21:20:49.911Z,99739.06
2023-05-01T21:23:17.772Z,99738.00
2023-05-01T21:25:45.268Z,99737.41
2023-05-01T21:28:13.197Z,99736.34
2023-05-01T21:30:40.906Z,99739.31
2023-05-01T21:33:12.270Z,99738.25
2023-05-01T21:35:42.784Z,99743.69
2023-05-01T21:38:11.532Z,99747.47
2023-05-01T21:40:41.151Z,99746.66
2023-05-01T21:43:09.031Z,99743.06
2023-05-01T21:45:40.587Z,99746.66
2023-05-01T21:48:09.468Z,99745.19
2023-05-01T21:50:38.175Z,99743.53
2023-05-01T21:53:08.472Z,99748.16
2023-05-01T21:55:36.006Z,99740.19
2023-05-01T21:58:04.082Z,99749.44
2023-05-01T22:00:31.878Z,99749.44
2023-05-01T22:03:07.240Z,99749.69
2023-05-01T22:05:34.781Z,99746.12
2023-05-01T22:08:02.691Z,99753.69
2023-05-01T22:10:30.091Z,99752.03
2023-05-01T22:12:57.478Z,99753.09
2023-05-01T22:15:25.212Z,99752.03
2023-05-01T22:17:52.694Z,99751.44
2023-05-01T22:20:20.164Z,99746.19
2023-05-01T22:22:47.933Z,99740.75
2023-05-01T22:25:16.654Z,99741.81
2023-05-01T22:27:44.093Z,99749.97
2023-05-01T22:30:12.124Z,99743.69
2023-05-01T22:32:39.608Z,99737.44
2023-05-01T22:35:08.825Z,99739.53
2023-05-01T22:37:36.681Z,99739.53
2023-05-01T22:40:05.636Z,99739.53
2023-05-01T22:42:32.986Z,99740.59
2023-05-01T22:45:00.657Z,99738.94
2023-05-01T22:47:28.082Z,99734.31
2023-05-01T22:49:55.527Z,99736.22
2023-05-01T22:52:23.188Z,99738.09
2023-05-01T22:54:52.547Z,99729.13
2023-05-01T22:57:19.945Z,99731.00
2023-05-01T22:59:48.361Z,99727.47
2023-05-01T23:02:16.305Z,99727.66
2023-05-01T23:04:44.168Z,99737.50
2023-05-01T23:07:14.885Z,99729.78
2023-05-01T23:09:42.327Z,99728.13
2023-05-01T23:12:14.840Z,99737.13
2023-05-01T23:14:42.527Z,99732.72
2023-05-01T23:17:09.936Z,99727.28
2023-05-01T23:19:37.944Z,99733.59
2023-05-01T23:22:09.655Z,99729.16
2023-05-01T23:24:44.812Z,99726.44
2023-05-01T23:27:13.557Z,99729.16
2023-05-01T23:29:41.046Z,99724.78
2023-05-01T23:32:10.626Z,99734.84
2023-05-01T23:34:38.687Z,99735.91
2023-05-01T23:37:06.851Z,99729.66
2023-05-01T23:39:34.247Z,99728.81
2023-05-01T23:42:02.530Z,99730.69
2023-05-01T23:44:30.459Z,99728.81
2023-05-01T23:46:57.950Z,99731.53
2023-05-01T23:49:25.707Z,99727.13
2023-05-01T23:51:53.336Z,99723.56
2023-05-01T23:54:20.715Z,99727.13
2023-05-01T23:56:48.390Z,99723.56
2023-05-01T23:59:15.882Z,99727.37
